Terminal Aerodrome Forecast
Issued by NWS

Home | Current Version | Previous Version | Text Only | Print | Product List | Glossary On
Versions: 1 2 3 4 5 6 7 8 9 10 11 12 13 14 15 16 17 18 19 20 21 22 23 24 25 26 27 28 29 30 31
000
FTUS41 KOKX 260242 AAA
TAFSWF
TAF AMD
KSWF 260242Z 2603/2706 07007KT 2SM SHRA BR VCTS OVC007CB
     FM260600 VRB04KT 2SM SHRA BR VCTS SCT006 OVC015CB
     FM260800 VRB04KT 2SM -SHRA BR OVC004
     FM261100 33006KT 5SM -SHRA SCT004 BKN007
     FM261400 29010KT P6SM SCT015 BKN025
     FM261600 29014G24KT P6SM SCT025 BKN035
      AMD NOT SKED=

USA.gov is the U.S. government's official web portal to all federal, state and local government web resources and services.